WXM80 ListenWXM80 Stop

You find our weather info also at:

UK Metoffice

WeatherCloud

Weather Underground

Northeastern Weather Network

AWEKAS

Citizen Weather Observer Program (CWOP)

HAMweather, WeatherForYou, PWS Weather


Weather Underground History page Text

Daily Summary for February 21, 2017 Units:  English    Metric   Both
« Previous Day
Next Day »
Daily Weekly Monthly Yearly Custom
  High: Low: Average:
Temperature: 45.3 °F 31.9 °F 38.8 °F
Dew Point: 36.8 °F 19.5 °F 28.9 °F
Humidity: 85 % 54 % 68 %
Wind Speed: 6.3 mph 0.0 mph 2.3 mph
Wind Gust: 11.0 mph - -
Wind:- - ESE
Pressure: 30.37 in 30.08 in -
Precipitation: 0.00 in    
Historical Graphs
 
 
Tabular Data for February 21, 2017
Time Temperature Dew Point Pressure Wind Wind Speed Wind Gust Humidity Rainfall Rate (Hourly)
00:03 35.7 °F 25.1 °F 30.33 in NE 0.2 mph 1.2 mph 65 % 0.00 in
00:08 35.5 °F 24.9 °F 30.33 in Calm     65 % 0.00 in
00:13 35.3 °F 25.1 °F 30.33 in NE 0.2 mph 2.3 mph 66 % 0.00 in
00:18 35.0 °F 24.8 °F 30.33 in NE 0.2 mph 2.3 mph 66 % 0.00 in
00:23 34.8 °F 24.6 °F 30.33 in Calm     66 % 0.00 in
00:28 34.5 °F 24.7 °F 30.34 in NE 0.1 mph 2.3 mph 67 % 0.00 in
00:33 34.1 °F 24.6 °F 30.34 in NE 0.4 mph 1.2 mph 68 % 0.00 in
00:38 33.9 °F 24.1 °F 30.34 in Calm     67 % 0.00 in
00:43 33.7 °F 23.9 °F 30.34 in Calm     67 % 0.00 in
00:48 33.6 °F 24.5 °F 30.33 in Calm   1.2 mph 69 % 0.00 in
00:53 33.5 °F 24.1 °F 30.34 in Calm     68 % 0.00 in
00:58 33.4 °F 24.3 °F 30.34 in Calm     69 % 0.00 in
01:03 33.3 °F 23.9 °F 30.34 in Calm     68 % 0.00 in
01:08 33.2 °F 24.1 °F 30.34 in NE 0.5 mph 2.3 mph 69 % 0.00 in
01:13 33.1 °F 23.7 °F 30.34 in Calm     68 % 0.00 in
01:18 33.0 °F 23.6 °F 30.34 in Calm     68 % 0.00 in
01:23 32.8 °F 23.7 °F 30.34 in Calm     69 % 0.00 in
01:28 32.6 °F 23.6 °F 30.35 in Calm     69 % 0.00 in
01:33 32.4 °F 23.7 °F 30.35 in ENE 0.3 mph 1.2 mph 70 % 0.00 in
01:38 32.3 °F 23.3 °F 30.35 in Calm   1.0 mph 69 % 0.00 in
01:43 32.1 °F 23.1 °F 30.34 in Calm     69 % 0.00 in
01:49 32.1 °F 22.7 °F 30.34 in Calm     68 % 0.00 in
01:54 32.1 °F 22.7 °F 30.34 in ENE 0.9 mph 2.3 mph 68 % 0.00 in
01:59 32.0 °F 22.6 °F 30.34 in NE 1.9 mph 4.0 mph 68 % 0.00 in
02:04 31.9 °F 21.5 °F 30.34 in ENE 2.4 mph 4.6 mph 65 % 0.00 in
02:09 31.9 °F 21.1 °F 30.34 in ENE 3.8 mph 4.6 mph 64 % 0.00 in
02:14 32.4 °F 20.4 °F 30.34 in ENE 2.8 mph 4.6 mph 61 % 0.00 in
02:19 32.9 °F 20.5 °F 30.34 in ENE 2.4 mph 3.5 mph 60 % 0.00 in
02:24 33.2 °F 20.4 °F 30.35 in ENE 2.7 mph 3.5 mph 59 % 0.00 in
02:29 33.5 °F 21.1 °F 30.35 in ENE 2.2 mph 3.5 mph 60 % 0.00 in
02:34 33.6 °F 21.2 °F 30.34 in NE 2.5 mph 3.5 mph 60 % 0.00 in
02:39 33.8 °F 20.6 °F 30.34 in East 4.5 mph 6.9 mph 58 % 0.00 in
02:44 34.1 °F 19.6 °F 30.34 in ENE 4.6 mph 6.9 mph 55 % 0.00 in
02:49 34.4 °F 19.5 °F 30.34 in ENE 3.3 mph 8.1 mph 54 % 0.00 in
02:54 34.6 °F 20.1 °F 30.34 in ENE 3.9 mph 8.1 mph 55 % 0.00 in
02:59 34.7 °F 20.2 °F 30.33 in NE 3.4 mph 6.9 mph 55 % 0.00 in
03:04 34.7 °F 19.7 °F 30.33 in ENE 3.5 mph 8.0 mph 54 % 0.00 in
03:09 34.7 °F 20.6 °F 30.33 in ENE 3.3 mph 4.6 mph 56 % 0.00 in
03:14 34.7 °F 21.0 °F 30.33 in ENE 3.6 mph 4.6 mph 57 % 0.00 in
03:19 34.6 °F 20.5 °F 30.33 in ENE 2.7 mph 6.9 mph 56 % 0.00 in
03:24 34.6 °F 21.3 °F 30.33 in ENE 2.4 mph 3.5 mph 58 % 0.00 in
03:30 34.5 °F 21.2 °F 30.33 in NE 2.3 mph 3.5 mph 58 % 0.00 in
03:35 34.4 °F 21.1 °F 30.33 in NE 2.3 mph 3.5 mph 58 % 0.00 in
03:40 34.3 °F 21.0 °F 30.34 in ENE 2.1 mph 3.5 mph 58 % 0.00 in
03:45 34.1 °F 21.3 °F 30.34 in ENE 3.0 mph 6.9 mph 59 % 0.00 in
03:50 34.0 °F 21.6 °F 30.33 in ENE 2.8 mph 4.0 mph 60 % 0.00 in
03:55 33.9 °F 21.9 °F 30.34 in ENE 1.9 mph 3.5 mph 61 % 0.00 in
04:00 33.8 °F 21.8 °F 30.33 in ENE 3.8 mph 5.8 mph 61 % 0.00 in
04:05 33.8 °F 21.8 °F 30.34 in ENE 2.7 mph 3.5 mph 61 % 0.00 in
04:10 33.8 °F 22.1 °F 30.34 in NE 2.0 mph 4.6 mph 62 % 0.00 in
04:15 33.9 °F 22.2 °F 30.34 in ENE 4.5 mph 8.0 mph 62 % 0.00 in
04:20 34.0 °F 23.1 °F 30.34 in ENE 2.3 mph 3.5 mph 64 % 0.00 in
04:25 34.1 °F 23.2 °F 30.35 in East 3.2 mph 7.0 mph 64 % 0.00 in
04:30 34.2 °F 23.3 °F 30.35 in ENE 5.0 mph 7.0 mph 64 % 0.00 in
04:35 34.3 °F 23.7 °F 30.35 in ENE 3.2 mph 5.0 mph 65 % 0.00 in
04:40 34.4 °F 23.1 °F 30.36 in ENE 5.0 mph 8.1 mph 63 % 0.00 in
04:45 34.5 °F 23.6 °F 30.35 in ENE 3.7 mph 5.8 mph 64 % 0.00 in
04:50 34.4 °F 23.8 °F 30.36 in ENE 3.9 mph 7.0 mph 65 % 0.00 in
04:55 34.4 °F 23.5 °F 30.36 in NE 2.7 mph 4.6 mph 64 % 0.00 in
05:00 34.4 °F 23.8 °F 30.36 in ENE 2.9 mph 5.8 mph 65 % 0.00 in
05:05 34.4 °F 23.8 °F 30.36 in ENE 2.2 mph 3.5 mph 65 % 0.00 in
05:10 34.3 °F 24.1 °F 30.36 in ENE 2.6 mph 4.0 mph 66 % 0.00 in
05:15 34.3 °F 24.1 °F 30.36 in East 2.9 mph 6.0 mph 66 % 0.00 in
05:21 34.3 °F 24.1 °F 30.37 in ENE 2.5 mph 4.6 mph 66 % 0.00 in
05:26 34.2 °F 23.7 °F 30.37 in ENE 2.8 mph 3.5 mph 65 % 0.00 in
05:31 34.1 °F 23.6 °F 30.37 in ENE 2.8 mph 4.6 mph 65 % 0.00 in
05:36 34.1 °F 23.6 °F 30.37 in NE 3.0 mph 3.5 mph 65 % 0.00 in
05:41 34.0 °F 23.5 °F 30.37 in NE 4.6 mph 8.1 mph 65 % 0.00 in
05:46 34.0 °F 23.5 °F 30.37 in ENE 1.4 mph 3.5 mph 65 % 0.00 in
05:51 34.0 °F 23.5 °F 30.37 in ENE 2.5 mph 3.5 mph 65 % 0.00 in
05:56 33.9 °F 23.7 °F 30.36 in NE 0.4 mph 2.3 mph 66 % 0.00 in
06:01 33.8 °F 23.6 °F 30.35 in ENE 2.4 mph 3.5 mph 66 % 0.00 in
06:06 33.6 °F 23.4 °F 30.35 in ENE 3.3 mph 6.9 mph 66 % 0.00 in
06:11 33.7 °F 23.2 °F 30.36 in ENE 3.9 mph 6.9 mph 65 % 0.00 in
06:16 33.6 °F 23.4 °F 30.35 in ENE 3.9 mph 5.0 mph 66 % 0.00 in
06:21 33.7 °F 23.5 °F 30.35 in ENE 3.9 mph 5.0 mph 66 % 0.00 in
06:26 33.6 °F 23.4 °F 30.35 in ENE 2.9 mph 6.9 mph 66 % 0.00 in
06:31 33.7 °F 23.9 °F 30.35 in NE 4.1 mph 6.0 mph 67 % 0.00 in
06:36 33.7 °F 23.9 °F 30.35 in ENE 3.8 mph 8.1 mph 67 % 0.00 in
06:41 33.8 °F 24.0 °F 30.34 in NE 4.9 mph 6.9 mph 67 % 0.00 in
06:46 33.8 °F 24.0 °F 30.34 in ENE 3.7 mph 6.9 mph 67 % 0.00 in
06:51 33.9 °F 24.1 °F 30.34 in ENE 4.2 mph 6.9 mph 67 % 0.00 in
06:56 34.1 °F 24.3 °F 30.34 in ENE 3.5 mph 4.6 mph 67 % 0.00 in
07:01 34.3 °F 24.8 °F 30.34 in ENE 4.1 mph 5.8 mph 68 % 0.00 in
07:06 34.6 °F 25.1 °F 30.34 in ENE 3.1 mph 4.0 mph 68 % 0.00 in
07:11 34.9 °F 25.0 °F 30.34 in ENE 3.6 mph 5.0 mph 67 % 0.00 in
07:16 35.2 °F 25.3 °F 30.34 in ENE 2.8 mph 3.5 mph 67 % 0.00 in
07:21 35.3 °F 25.4 °F 30.34 in ENE 2.7 mph 3.5 mph 67 % 0.00 in
07:27 35.5 °F 25.6 °F 30.34 in East 3.7 mph 5.8 mph 67 % 0.00 in
07:32 35.6 °F 25.4 °F 30.34 in East 2.6 mph 4.6 mph 66 % 0.00 in
07:37 35.6 °F 25.4 °F 30.35 in ENE 1.3 mph 2.3 mph 66 % 0.00 in
07:42 35.7 °F 25.4 °F 30.36 in ENE 1.5 mph 2.3 mph 66 % 0.00 in
07:47 35.7 °F 25.1 °F 30.36 in ENE 2.6 mph 3.5 mph 65 % 0.00 in
07:52 35.8 °F 25.2 °F 30.36 in ENE 1.2 mph 2.3 mph 65 % 0.00 in
07:57 35.9 °F 25.3 °F 30.36 in ENE 0.1 mph 3.5 mph 65 % 0.00 in
08:02 36.0 °F 25.4 °F 30.37 in ENE 0.2 mph 2.3 mph 65 % 0.00 in
08:07 36.1 °F 25.8 °F 30.37 in NE 2.0 mph 3.5 mph 66 % 0.00 in
08:12 36.3 °F 26.0 °F 30.37 in NNE 1.7 mph 3.5 mph 66 % 0.00 in
08:17 36.7 °F 26.0 °F 30.37 in NE 1.9 mph 3.0 mph 65 % 0.00 in
08:22 37.0 °F 26.3 °F 30.37 in North 3.1 mph 3.5 mph 65 % 0.00 in
08:27 37.4 °F 26.3 °F 30.37 in NE 1.7 mph 4.6 mph 64 % 0.00 in
08:32 37.5 °F 26.0 °F 30.37 in ENE 1.5 mph 3.5 mph 63 % 0.00 in
08:37 37.7 °F 26.2 °F 30.37 in NNE 2.4 mph 3.5 mph 63 % 0.00 in
08:42 37.9 °F 26.4 °F 30.37 in NNE 0.7 mph 3.5 mph 63 % 0.00 in
08:47 38.3 °F 26.8 °F 30.37 in NNE 1.3 mph 3.5 mph 63 % 0.00 in
08:52 38.6 °F 27.5 °F 30.37 in NE 1.6 mph 3.5 mph 64 % 0.00 in
08:57 38.9 °F 27.4 °F 30.37 in North 2.1 mph 4.0 mph 63 % 0.00 in
09:02 39.1 °F 27.6 °F 30.36 in NNE 1.6 mph 3.5 mph 63 % 0.00 in
09:07 39.2 °F 27.3 °F 30.36 in North 1.1 mph 3.5 mph 62 % 0.00 in
09:12 39.1 °F 27.2 °F 30.36 in ENE 1.7 mph 3.5 mph 62 % 0.00 in
09:17 39.3 °F 27.7 °F 30.36 in East 1.1 mph 3.5 mph 63 % 0.00 in
09:22 39.1 °F 27.2 °F 30.36 in NE 2.3 mph 4.0 mph 62 % 0.00 in
09:28 39.1 °F 27.2 °F 30.35 in NNE 3.4 mph 4.6 mph 62 % 0.00 in
09:33 39.6 °F 27.6 °F 30.36 in ENE 2.7 mph 5.0 mph 62 % 0.00 in
09:38 39.7 °F 26.9 °F 30.35 in ENE 2.8 mph 4.6 mph 60 % 0.00 in
09:43 39.5 °F 27.2 °F 30.35 in ENE 2.6 mph 4.0 mph 61 % 0.00 in
09:48 39.5 °F 27.5 °F 30.35 in ENE 3.9 mph 7.0 mph 62 % 0.00 in
09:53 39.7 °F 27.7 °F 30.35 in ENE 2.8 mph 3.5 mph 62 % 0.00 in
09:58 39.7 °F 27.3 °F 30.35 in ENE 3.6 mph 5.0 mph 61 % 0.00 in
10:03 39.6 °F 27.2 °F 30.35 in NNE 3.6 mph 6.9 mph 61 % 0.00 in
10:08 39.7 °F 27.7 °F 30.35 in East 3.1 mph 4.6 mph 62 % 0.00 in
10:13 39.5 °F 27.5 °F 30.34 in ENE 4.4 mph 6.9 mph 62 % 0.00 in
10:18 39.2 °F 27.3 °F 30.35 in ENE 3.8 mph 6.9 mph 62 % 0.00 in
10:23 39.2 °F 27.7 °F 30.35 in NE 3.3 mph 4.0 mph 63 % 0.00 in
10:28 39.2 °F 28.0 °F 30.35 in NE 2.0 mph 8.0 mph 64 % 0.00 in
10:33 39.6 °F 28.4 °F 30.35 in NE 3.0 mph 5.0 mph 64 % 0.00 in
10:38 39.8 °F 28.6 °F 30.35 in NE 1.0 mph 5.0 mph 64 % 0.00 in
10:43 40.2 °F 28.2 °F 30.34 in ENE 3.0 mph 5.0 mph 62 % 0.00 in
10:48 40.3 °F 28.3 °F 30.35 in ENE 2.0 mph 5.0 mph 62 % 0.00 in
10:53 40.4 °F 28.0 °F 30.34 in ENE 2.6 mph 6.9 mph 61 % 0.00 in
10:58 40.7 °F 29.1 °F 30.34 in NE 2.2 mph 7.0 mph 63 % 0.00 in
11:03 40.9 °F 29.3 °F 30.34 in ENE 2.0 mph 7.0 mph 63 % 0.00 in
11:13 41.9 °F 29.4 °F 30.34 in ENE 3.0 mph 5.0 mph 61 % 0.00 in
11:18 41.6 °F 29.1 °F 30.33 in ENE 2.0 mph 7.0 mph 61 % 0.00 in
11:23 41.6 °F 29.5 °F 30.33 in NE 3.0 mph 6.0 mph 62 % 0.00 in
11:28 42.3 °F 31.0 °F 30.32 in NE 3.0 mph 5.0 mph 64 % 0.00 in
11:33 42.0 °F 29.6 °F 30.32 in ENE 3.0 mph 7.0 mph 61 % 0.00 in
11:38 41.7 °F 29.6 °F 30.32 in ENE 2.0 mph 7.0 mph 62 % 0.00 in
11:43 41.8 °F 29.3 °F 30.32 in NE 3.0 mph 6.0 mph 61 % 0.00 in
11:48 41.6 °F 29.9 °F 30.31 in ENE 3.0 mph 7.0 mph 63 % 0.00 in
11:53 41.4 °F 29.8 °F 30.31 in NE 2.0 mph 8.0 mph 63 % 0.00 in
11:58 41.5 °F 29.8 °F 30.31 in NE 3.2 mph 4.6 mph 63 % 0.00 in
12:03 41.4 °F 29.7 °F 30.31 in NE 5.0 mph 8.0 mph 63 % 0.00 in
12:08 40.9 °F 29.7 °F 30.30 in ENE 5.0 mph 8.0 mph 64 % 0.00 in
12:13 40.9 °F 30.4 °F 30.31 in ENE 2.0 mph 7.0 mph 66 % 0.00 in
12:18 41.2 °F 30.7 °F 30.30 in ENE 2.8 mph 5.8 mph 66 % 0.00 in
12:23 41.3 °F 30.4 °F 30.30 in NE 2.0 mph 5.0 mph 65 % 0.00 in
12:28 41.4 °F 29.7 °F 30.29 in NE 3.0 mph 7.0 mph 63 % 0.00 in
12:33 41.6 °F 30.7 °F 30.29 in NE 2.0 mph 5.0 mph 65 % 0.00 in
12:38 42.0 °F 30.7 °F 30.29 in NE 2.0 mph 5.0 mph 64 % 0.00 in
12:43 41.9 °F 31.0 °F 30.28 in ENE 1.0 mph 5.0 mph 65 % 0.00 in
12:48 42.2 °F 31.3 °F 30.28 in NE 2.0 mph 7.0 mph 65 % 0.00 in
12:53 42.4 °F 30.7 °F 30.28 in NE 2.0 mph 5.0 mph 63 % 0.00 in
12:58 43.2 °F 31.8 °F 30.27 in ENE 3.2 mph 3.5 mph 64 % 0.00 in
13:03 43.1 °F 31.0 °F 30.27 in NE 2.0 mph 5.0 mph 62 % 0.00 in
13:08 43.0 °F 31.7 °F 30.27 in NE 3.0 mph 5.0 mph 64 % 0.00 in
13:13 42.8 °F 31.8 °F 30.27 in NE 0.1 mph 3.5 mph 65 % 0.00 in
13:18 42.6 °F 31.3 °F 30.27 in NE 2.0 mph 5.0 mph 64 % 0.00 in
13:23 42.6 °F 31.6 °F 30.27 in NNE 2.0 mph 6.0 mph 65 % 0.00 in
13:28 42.5 °F 31.6 °F 30.26 in NE 2.0 mph 5.0 mph 65 % 0.00 in
13:33 42.5 °F 31.2 °F 30.26 in ENE 2.9 mph 3.5 mph 64 % 0.00 in
13:38 42.5 °F 31.6 °F 30.26 in NE 1.0 mph 4.0 mph 65 % 0.00 in
13:43 42.7 °F 32.1 °F 30.25 in NE 2.0 mph 5.0 mph 66 % 0.00 in
13:48 42.7 °F 32.1 °F 30.25 in NE 2.0 mph 5.0 mph 66 % 0.00 in
13:53 42.6 °F 32.4 °F 30.25 in NE 2.0 mph 5.0 mph 67 % 0.00 in
13:58 42.4 °F 31.8 °F 30.25 in ENE 2.8 mph 4.0 mph 66 % 0.00 in
14:03 42.3 °F 31.4 °F 30.24 in ENE 1.0 mph 5.0 mph 65 % 0.00 in
14:08 42.3 °F 31.4 °F 30.24 in ENE 2.0 mph 6.0 mph 65 % 0.00 in
14:13 42.0 °F 31.1 °F 30.23 in NE 3.4 mph 5.0 mph 65 % 0.00 in
14:18 41.9 °F 31.4 °F 30.23 in NNE 2.0 mph 4.0 mph 66 % 0.00 in
14:23 42.0 °F 31.5 °F 30.23 in NE 3.0 mph 5.0 mph 66 % 0.00 in
14:28 42.0 °F 31.8 °F 30.23 in ENE 1.0 mph 4.0 mph 67 % 0.00 in
14:33 42.0 °F 31.5 °F 30.23 in ENE 2.1 mph 4.6 mph 66 % 0.00 in
14:38 42.0 °F 32.2 °F 30.23 in NE 5.0 mph 6.0 mph 68 % 0.00 in
14:43 42.2 °F 32.0 °F 30.23 in NNE 1.0 mph 4.0 mph 67 % 0.00 in
14:48 42.2 °F 31.6 °F 30.23 in NE 2.0 mph 7.0 mph 66 % 0.00 in
14:53 42.2 °F 32.0 °F 30.23 in NE 1.8 mph 4.6 mph 67 % 0.00 in
14:58 42.3 °F 32.5 °F 30.23 in NE 0.7 mph 2.0 mph 68 % 0.00 in
15:03 42.5 °F 32.3 °F 30.22 in SSW 3.7 mph 7.0 mph 67 % 0.00 in
15:08 42.9 °F 32.3 °F 30.23 in WNW 1.4 mph 3.5 mph 66 % 0.00 in
15:13 43.3 °F 31.9 °F 30.23 in West 3.5 mph 5.8 mph 64 % 0.00 in
15:19 44.0 °F 31.4 °F 30.22 in WSW 3.7 mph 5.8 mph 61 % 0.00 in
15:24 44.4 °F 31.4 °F 30.21 in South 3.9 mph 5.0 mph 60 % 0.00 in
15:29 44.6 °F 32.4 °F 30.21 in South 2.2 mph 3.5 mph 62 % 0.00 in
15:34 44.9 °F 31.8 °F 30.21 in SSW 2.0 mph 4.6 mph 60 % 0.00 in
15:39 45.1 °F 32.4 °F 30.21 in SSW 2.5 mph 6.9 mph 61 % 0.00 in
15:44 45.2 °F 32.1 °F 30.20 in SSW 1.9 mph 3.5 mph 60 % 0.00 in
15:49 45.3 °F 32.2 °F 30.21 in South 3.3 mph 6.9 mph 60 % 0.00 in
15:50 45.3 °F 32.6 °F 30.20 in SSW 3.1 mph 5.0 mph 61 % 0.00 in
15:55 45.0 °F 31.5 °F 30.21 in SSW 2.9 mph 6.9 mph 59 % 0.00 in
16:00 44.8 °F 31.8 °F 30.21 in SW 2.0 mph 6.9 mph 60 % 0.00 in
16:05 44.7 °F 31.7 °F 30.22 in SSW 3.6 mph 5.8 mph 60 % 0.00 in
16:10 44.6 °F 31.6 °F 30.22 in SSW 3.5 mph 8.1 mph 60 % 0.00 in
16:15 44.4 °F 31.4 °F 30.21 in WSW 2.1 mph 6.9 mph 60 % 0.00 in
16:20 44.3 °F 31.3 °F 30.21 in SSW 0.5 mph 3.5 mph 60 % 0.00 in
16:25 44.2 °F 31.6 °F 30.21 in SSW 3.8 mph 7.0 mph 61 % 0.00 in
16:30 43.9 °F 31.3 °F 30.20 in South 3.7 mph 6.9 mph 61 % 0.00 in
16:35 43.7 °F 31.5 °F 30.20 in South 2.9 mph 5.8 mph 62 % 0.00 in
16:40 43.6 °F 31.8 °F 30.20 in South 0.9 mph 3.5 mph 63 % 0.00 in
16:45 43.4 °F 31.6 °F 30.20 in South 1.0 mph 3.5 mph 63 % 0.00 in
16:47 43.4 °F 31.6 °F 30.20 in South 0.9 mph 5.0 mph 63 % 0.00 in
16:52 43.2 °F 31.8 °F 30.20 in South 1.1 mph 1.2 mph 64 % 0.00 in
16:57 43.1 °F 31.7 °F 30.20 in SSW 1.8 mph 3.5 mph 64 % 0.00 in
17:02 42.9 °F 31.6 °F 30.20 in SSW 2.3 mph 4.6 mph 64 % 0.00 in
17:07 42.8 °F 31.8 °F 30.20 in South 4.7 mph 8.1 mph 65 % 0.00 in
17:12 42.7 °F 32.1 °F 30.20 in SSW 1.0 mph 2.3 mph 66 % 0.00 in
17:17 42.5 °F 31.9 °F 30.19 in SSE 2.5 mph 4.6 mph 66 % 0.00 in
17:22 42.4 °F 31.8 °F 30.18 in SSE 3.8 mph 6.9 mph 66 % 0.00 in
17:27 42.2 °F 31.6 °F 30.18 in SSE 3.1 mph 5.0 mph 66 % 0.00 in
17:32 42.1 °F 31.9 °F 30.18 in SSE 2.0 mph 4.6 mph 67 % 0.00 in
17:37 42.0 °F 32.2 °F 30.18 in SSW 3.3 mph 6.9 mph 68 % 0.00 in
17:42 41.9 °F 32.5 °F 30.19 in South 2.5 mph 6.0 mph 69 % 0.00 in
17:47 41.8 °F 32.4 °F 30.19 in SSE 2.8 mph 6.0 mph 69 % 0.00 in
17:52 41.8 °F 32.7 °F 30.19 in SSE 2.4 mph 3.5 mph 70 % 0.00 in
17:57 41.6 °F 32.5 °F 30.18 in SE 4.5 mph 5.0 mph 70 % 0.00 in
18:02 41.5 °F 32.4 °F 30.18 in SSE 1.6 mph 3.5 mph 70 % 0.00 in
18:07 41.5 °F 32.4 °F 30.19 in South 2.4 mph 5.8 mph 70 % 0.00 in
18:12 41.4 °F 32.7 °F 30.19 in South 1.4 mph 4.0 mph 71 % 0.00 in
18:17 41.3 °F 32.6 °F 30.19 in SSE 2.5 mph 4.6 mph 71 % 0.00 in
18:18 41.3 °F 32.6 °F 30.19 in SSW 1.9 mph 5.0 mph 71 % 0.00 in
18:23 41.2 °F 32.5 °F 30.19 in SSW 1.3 mph 3.5 mph 71 % 0.00 in
18:28 41.1 °F 32.8 °F 30.20 in South 2.3 mph 4.0 mph 72 % 0.00 in
18:34 41.0 °F 32.7 °F 30.19 in SSW 1.0 mph 4.0 mph 72 % 0.00 in
18:39 40.9 °F 32.6 °F 30.19 in South 0.9 mph 2.3 mph 72 % 0.00 in
18:44 40.8 °F 32.8 °F 30.19 in South 2.1 mph 3.5 mph 73 % 0.00 in
18:49 40.7 °F 32.7 °F 30.18 in SSE 1.6 mph 4.0 mph 73 % 0.00 in
18:54 40.6 °F 32.6 °F 30.17 in South 0.3 mph 2.3 mph 73 % 0.00 in
18:59 40.6 °F 33.0 °F 30.17 in SSE 2.7 mph 5.8 mph 74 % 0.00 in
19:04 40.4 °F 33.1 °F 30.17 in South 1.8 mph 3.5 mph 75 % 0.00 in
19:09 40.4 °F 33.1 °F 30.17 in SSW 1.2 mph 3.5 mph 75 % 0.00 in
19:14 40.3 °F 33.0 °F 30.17 in South 2.3 mph 4.6 mph 75 % 0.00 in
19:19 40.2 °F 33.2 °F 30.17 in SSW 1.8 mph 4.6 mph 76 % 0.00 in
19:24 40.2 °F 33.2 °F 30.17 in SSW 2.1 mph 6.0 mph 76 % 0.00 in
19:29 40.2 °F 33.2 °F 30.16 in South 2.5 mph 3.5 mph 76 % 0.00 in
19:34 40.2 °F 33.2 °F 30.15 in SSE 3.6 mph 6.9 mph 76 % 0.00 in
19:39 40.2 °F 33.6 °F 30.16 in SSW 2.5 mph 3.5 mph 77 % 0.00 in
19:44 40.2 °F 33.6 °F 30.16 in SSW 0.1 mph 3.5 mph 77 % 0.00 in
19:49 40.2 °F 33.6 °F 30.16 in SSW 2.8 mph 4.0 mph 77 % 0.00 in
19:55 40.2 °F 33.6 °F 30.16 in South 3.3 mph 6.0 mph 77 % 0.00 in
20:00 40.2 °F 33.6 °F 30.16 in SSW 1.4 mph 3.5 mph 77 % 0.00 in
20:05 40.2 °F 33.6 °F 30.16 in South 4.0 mph 5.8 mph 77 % 0.00 in
20:10 40.2 °F 33.6 °F 30.16 in South 2.0 mph 3.5 mph 77 % 0.00 in
20:15 40.2 °F 33.6 °F 30.16 in South 1.4 mph 5.8 mph 77 % 0.00 in
20:20 40.2 °F 33.6 °F 30.16 in SSW 4.3 mph 7.0 mph 77 % 0.00 in
20:25 40.3 °F 33.7 °F 30.16 in South 3.3 mph 3.5 mph 77 % 0.00 in
20:30 40.3 °F 33.7 °F 30.16 in South 1.6 mph 2.3 mph 77 % 0.00 in
20:35 40.4 °F 33.8 °F 30.16 in SSW 2.5 mph 5.8 mph 77 % 0.00 in
20:40 40.4 °F 33.8 °F 30.15 in SSW 3.9 mph 7.0 mph 77 % 0.00 in
20:45 40.4 °F 34.1 °F 30.15 in SW 2.9 mph 8.1 mph 78 % 0.00 in
20:50 40.4 °F 34.1 °F 30.16 in SSW 1.4 mph 3.5 mph 78 % 0.00 in
20:55 40.5 °F 34.2 °F 30.16 in SSW 1.7 mph 3.5 mph 78 % 0.00 in
21:00 40.5 °F 34.2 °F 30.16 in SSW 1.3 mph 4.6 mph 78 % 0.00 in
21:05 40.5 °F 34.2 °F 30.15 in SSW 0.8 mph 3.5 mph 78 % 0.00 in
21:10 40.5 °F 34.2 °F 30.16 in SSW 0.4 mph 3.5 mph 78 % 0.00 in
21:15 40.5 °F 34.2 °F 30.16 in SSW 1.2 mph 4.6 mph 78 % 0.00 in
21:20 40.5 °F 34.5 °F 30.15 in South 0.9 mph 2.3 mph 79 % 0.00 in
21:25 40.5 °F 34.5 °F 30.15 in South 0.2 mph 2.3 mph 79 % 0.00 in
21:30 40.5 °F 34.5 °F 30.15 in SSW 2.1 mph 3.5 mph 79 % 0.00 in
21:35 40.5 °F 34.5 °F 30.15 in SSW 1.8 mph 4.6 mph 79 % 0.00 in
21:40 40.5 °F 34.5 °F 30.15 in South 1.6 mph 4.0 mph 79 % 0.00 in
21:45 40.5 °F 34.8 °F 30.15 in SSW 2.9 mph 4.6 mph 80 % 0.00 in
21:50 40.5 °F 35.1 °F 30.14 in SSW 0.5 mph 2.3 mph 81 % 0.00 in
21:56 40.5 °F 35.1 °F 30.15 in SW 2.9 mph 3.5 mph 81 % 0.00 in
22:01 40.5 °F 35.1 °F 30.14 in SSW 2.3 mph 4.6 mph 81 % 0.00 in
22:06 40.5 °F 35.4 °F 30.14 in SSW 2.5 mph 3.5 mph 82 % 0.00 in
22:11 40.5 °F 35.4 °F 30.14 in SW 1.7 mph 6.9 mph 82 % 0.00 in
22:16 40.5 °F 35.4 °F 30.14 in SSW 0.7 mph 3.5 mph 82 % 0.00 in
22:21 40.5 °F 35.4 °F 30.13 in South 2.4 mph 4.6 mph 82 % 0.00 in
22:26 40.6 °F 35.5 °F 30.13 in South 0.6 mph 2.3 mph 82 % 0.00 in
22:31 40.6 °F 35.5 °F 30.12 in SSW 1.8 mph 4.0 mph 82 % 0.00 in
22:36 40.6 °F 35.5 °F 30.12 in SSW 0.3 mph 2.3 mph 82 % 0.00 in
22:41 40.6 °F 35.8 °F 30.12 in Calm   2.3 mph 83 % 0.00 in
22:46 40.6 °F 35.8 °F 30.12 in SW 0.8 mph 3.5 mph 83 % 0.00 in
22:51 40.6 °F 36.1 °F 30.12 in South 0.3 mph 2.3 mph 84 % 0.00 in
22:56 40.6 °F 36.1 °F 30.11 in SW 0.1 mph 2.0 mph 84 % 0.00 in
23:01 40.6 °F 36.1 °F 30.11 in SW 1.2 mph 3.5 mph 84 % 0.00 in
23:06 40.6 °F 36.1 °F 30.11 in SW 1.7 mph 3.5 mph 84 % 0.00 in
23:12 40.6 °F 36.1 °F 30.10 in SW 2.9 mph 5.0 mph 84 % 0.00 in
23:17 40.6 °F 36.1 °F 30.10 in SW 3.5 mph 5.8 mph 84 % 0.00 in
23:22 40.7 °F 36.2 °F 30.10 in SSW 2.8 mph 7.0 mph 84 % 0.00 in
23:27 40.7 °F 36.5 °F 30.10 in SSW 0.7 mph 2.3 mph 85 % 0.00 in
23:32 40.7 °F 36.5 °F 30.10 in SW 2.0 mph 3.5 mph 85 % 0.00 in
23:37 40.8 °F 36.6 °F 30.10 in SW 1.5 mph 4.6 mph 85 % 0.00 in
23:42 40.8 °F 36.6 °F 30.10 in SSW 4.3 mph 8.1 mph 85 % 0.00 in
23:47 40.9 °F 36.7 °F 30.09 in SSE 4.9 mph 9.2 mph 85 % 0.00 in
23:52 40.9 °F 36.7 °F 30.08 in South 5.6 mph 6.0 mph 85 % 0.00 in
23:57 41.0 °F 36.8 °F 30.08 in SW 6.3 mph 11.0 mph 85 % 0.00 in
Crab Meadow Weather
Compliments of Weather Underground - 3 mb

Script developed by  Jim McMurry - jmcmurry@mwt.net Adapted for the template by  Wim van der Kuil - Leuven-Template.eu

Extremes: A total of 1,224.5 inches of snow fell over a 12-month period from February 1971 to February 1972 at Paradise, Mt. Ranier, in Washington State.